sensor_id;sensor_type;location;lat;lon;timestamp;pressure;altitude;pressure_sealevel;temperature;humidity
17383;BME280;8809;51.892;8.384;2023-07-24T00:01:44;99583.47;;;18.87;100.00
17383;BME280;8809;51.892;8.384;2023-07-24T00:04:11;99588.75;;;18.89;100.00
17383;BME280;8809;51.892;8.384;2023-07-24T00:06:39;99583.44;;;18.89;100.00
17383;BME280;8809;51.892;8.384;2023-07-24T00:09:06;99584.34;;;18.89;100.00
17383;BME280;8809;51.892;8.384;2023-07-24T00:11:33;99578.16;;;18.89;100.00
17383;BME280;8809;51.892;8.384;2023-07-24T00:14:01;99578.16;;;18.90;100.00
17383;BME280;8809;51.892;8.384;2023-07-24T00:16:29;99578.16;;;18.89;100.00
17383;BME280;8809;51.892;8.384;2023-07-24T00:18:56;99568.47;;;18.88;100.00
17383;BME280;8809;51.892;8.384;2023-07-24T00:21:23;99568.47;;;18.89;100.00
17383;BME280;8809;51.892;8.384;2023-07-24T00:23:50;99561.44;;;18.87;100.00
17383;BME280;8809;51.892;8.384;2023-07-24T00:26:17;99561.50;;;18.79;100.00
17383;BME280;8809;51.892;8.384;2023-07-24T00:28:45;99558.81;;;18.84;100.00
17383;BME280;8809;51.892;8.384;2023-07-24T00:31:13;99557.91;;;18.86;100.00
17383;BME280;8809;51.892;8.384;2023-07-24T00:33:40;99565.03;;;18.83;100.00
17383;BME280;8809;51.892;8.384;2023-07-24T00:36:07;99556.13;;;18.90;100.00
17383;BME280;8809;51.892;8.384;2023-07-24T00:38:38;99557.03;;;18.89;100.00
17383;BME280;8809;51.892;8.384;2023-07-24T00:41:05;99552.63;;;18.86;100.00
17383;BME280;8809;51.892;8.384;2023-07-24T00:43:32;99550.88;;;18.84;100.00
17383;BME280;8809;51.892;8.384;2023-07-24T00:46:00;99548.38;;;18.73;100.00
17383;BME280;8809;51.892;8.384;2023-07-24T00:48:28;99554.53;;;18.72;100.00
17383;BME280;8809;51.892;8.384;2023-07-24T00:50:56;99554.53;;;18.72;100.00
17383;BME280;8809;51.892;8.384;2023-07-24T00:53:23;99550.94;;;18.79;100.00
17383;BME280;8809;51.892;8.384;2023-07-24T00:55:50;99546.47;;;18.84;100.00
17383;BME280;8809;51.892;8.384;2023-07-24T00:58:19;99541.19;;;18.84;100.00
17383;BME280;8809;51.892;8.384;2023-07-24T01:00:46;99547.44;;;18.77;100.00
17383;BME280;8809;51.892;8.384;2023-07-24T01:03:13;99543.06;;;18.73;100.00
17383;BME280;8809;51.892;8.384;2023-07-24T01:05:42;99536.88;;;18.76;100.00
17383;BME280;8809;51.892;8.384;2023-07-24T01:08:09;99535.09;;;18.75;100.00
17383;BME280;8809;51.892;8.384;2023-07-24T01:10:36;99530.66;;;18.81;100.00
17383;BME280;8809;51.892;8.384;2023-07-24T01:13:06;99526.28;;;18.80;100.00
17383;BME280;8809;51.892;8.384;2023-07-24T01:15:38;99518.47;;;18.65;100.00
17383;BME280;8809;51.892;8.384;2023-07-24T01:18:08;99512.34;;;18.62;100.00
17383;BME280;8809;51.892;8.384;2023-07-24T01:20:37;99517.63;;;18.62;100.00
17383;BME280;8809;51.892;8.384;2023-07-24T01:23:15;99520.22;;;18.65;100.00
17383;BME280;8809;51.892;8.384;2023-07-24T01:26:00;99520.22;;;18.65;100.00
17383;BME280;8809;51.892;8.384;2023-07-24T01:28:28;99520.25;;;18.63;100.00
17383;BME280;8809;51.892;8.384;2023-07-24T01:30:55;99526.44;;;18.62;100.00
17383;BME280;8809;51.892;8.384;2023-07-24T01:33:23;99517.63;;;18.60;100.00
17383;BME280;8809;51.892;8.384;2023-07-24T01:35:55;99510.59;;;18.59;100.00
17383;BME280;8809;51.892;8.384;2023-07-24T01:38:24;99515.84;;;18.56;100.00
17383;BME280;8809;51.892;8.384;2023-07-24T01:40:53;99515.91;;;18.53;100.00
17383;BME280;8809;51.892;8.384;2023-07-24T01:43:22;99511.50;;;18.50;100.00
17383;BME280;8809;51.892;8.384;2023-07-24T01:45:50;99508.88;;;18.53;100.00
17383;BME280;8809;51.892;8.384;2023-07-24T01:48:17;99497.41;;;18.54;100.00
17383;BME280;8809;51.892;8.384;2023-07-24T01:50:45;99502.72;;;18.50;100.00
17383;BME280;8809;51.892;8.384;2023-07-24T01:53:13;99495.69;;;18.49;100.00
17383;BME280;8809;51.892;8.384;2023-07-24T01:55:40;99510.66;;;18.45;100.00
17383;BME280;8809;51.892;8.384;2023-07-24T01:58:07;99493.97;;;18.43;100.00
17383;BME280;8809;51.892;8.384;2023-07-24T02:00:36;99497.50;;;18.42;100.00
17383;BME280;8809;51.892;8.384;2023-07-24T02:03:03;99500.16;;;18.36;100.00
17383;BME280;8809;51.892;8.384;2023-07-24T02:05:31;99494.88;;;18.38;100.00
17383;BME280;8809;51.892;8.384;2023-07-24T02:07:58;99493.13;;;18.37;100.00
17383;BME280;8809;51.892;8.384;2023-07-24T02:10:25;99488.75;;;18.34;100.00
17383;BME280;8809;51.892;8.384;2023-07-24T02:12:52;99493.16;;;18.34;100.00
17383;BME280;8809;51.892;8.384;2023-07-24T02:15:20;99477.34;;;18.31;100.00
17383;BME280;8809;51.892;8.384;2023-07-24T02:17:49;99491.44;;;18.30;100.00
17383;BME280;8809;51.892;8.384;2023-07-24T02:20:16;99480.88;;;18.27;100.00
17383;BME280;8809;51.892;8.384;2023-07-24T02:22:43;99479.16;;;18.26;100.00
17383;BME280;8809;51.892;8.384;2023-07-24T02:25:10;99475.59;;;18.30;100.00
17383;BME280;8809;51.892;8.384;2023-07-24T02:27:37;99473.81;;;18.32;100.00
17383;BME280;8809;51.892;8.384;2023-07-24T02:30:05;99475.63;;;18.25;100.00
17383;BME280;8809;51.892;8.384;2023-07-24T02:32:33;99477.31;;;18.34;100.00
17383;BME280;8809;51.892;8.384;2023-07-24T02:35:01;99472.03;;;18.35;100.00
17383;BME280;8809;51.892;8.384;2023-07-24T02:37:28;99466.78;;;18.28;100.00
17383;BME280;8809;51.892;8.384;2023-07-24T02:39:55;99455.34;;;18.29;100.00
17383;BME280;8809;51.892;8.384;2023-07-24T02:42:22;99450.94;;;18.28;100.00
17383;BME280;8809;51.892;8.384;2023-07-24T02:44:49;99450.94;;;18.26;100.00
17383;BME280;8809;51.892;8.384;2023-07-24T02:47:18;99452.75;;;18.26;100.00
17383;BME280;8809;51.892;8.384;2023-07-24T02:49:46;99451.00;;;18.25;100.00
17383;BME280;8809;51.892;8.384;2023-07-24T02:52:14;99453.63;;;18.25;100.00
17383;BME280;8809;51.892;8.384;2023-07-24T02:54:41;99453.63;;;18.23;100.00
17383;BME280;8809;51.892;8.384;2023-07-24T02:57:08;99455.41;;;18.23;100.00
17383;BME280;8809;51.892;8.384;2023-07-24T02:59:36;99451.00;;;18.20;100.00
17383;BME280;8809;51.892;8.384;2023-07-24T03:02:03;99451.88;;;18.21;100.00
17383;BME280;8809;51.892;8.384;2023-07-24T03:04:30;99453.66;;;18.18;100.00
17383;BME280;8809;51.892;8.384;2023-07-24T03:06:57;99462.50;;;18.14;100.00
17383;BME280;8809;51.892;8.384;2023-07-24T03:09:26;99454.59;;;18.11;100.00
17383;BME280;8809;51.892;8.384;2023-07-24T03:11:53;99451.13;;;18.06;100.00
17383;BME280;8809;51.892;8.384;2023-07-24T03:14:20;99452.00;;;18.05;100.00
17383;BME280;8809;51.892;8.384;2023-07-24T03:16:47;99453.78;;;18.05;100.00
17383;BME280;8809;51.892;8.384;2023-07-24T03:19:15;99439.72;;;18.01;100.00
17383;BME280;8809;51.892;8.384;2023-07-24T03:21:43;99440.59;;;18.00;100.00
17383;BME280;8809;51.892;8.384;2023-07-24T03:24:10;99427.41;;;17.99;100.00
17383;BME280;8809;51.892;8.384;2023-07-24T03:26:39;99434.50;;;17.97;100.00
17383;BME280;8809;51.892;8.384;2023-07-24T03:29:06;99425.69;;;17.96;100.00
17383;BME280;8809;51.892;8.384;2023-07-24T03:31:33;99423.06;;;17.92;100.00
17383;BME280;8809;51.892;8.384;2023-07-24T03:34:01;99425.72;;;17.90;100.00
17383;BME280;8809;51.892;8.384;2023-07-24T03:36:28;99418.72;;;17.88;100.00
17383;BME280;8809;51.892;8.384;2023-07-24T03:38:55;99419.56;;;17.88;100.00
17383;BME280;8809;51.892;8.384;2023-07-24T03:41:23;99411.66;;;17.88;100.00
17383;BME280;8809;51.892;8.384;2023-07-24T03:43:52;99409.06;;;17.87;100.00
17383;BME280;8809;51.892;8.384;2023-07-24T03:46:21;99409.94;;;17.86;100.00
17383;BME280;8809;51.892;8.384;2023-07-24T03:48:48;99394.09;;;17.84;100.00
17383;BME280;8809;51.892;8.384;2023-07-24T03:51:16;99387.94;;;17.85;100.00
17383;BME280;8809;51.892;8.384;2023-07-24T03:53:43;99383.53;;;17.86;100.00
17383;BME280;8809;51.892;8.384;2023-07-24T03:56:10;99380.03;;;17.84;100.00
17383;BME280;8809;51.892;8.384;2023-07-24T03:58:38;99373.88;;;17.83;100.00
17383;BME280;8809;51.892;8.384;2023-07-24T04:01:07;99365.97;;;17.86;100.00
17383;BME280;8809;51.892;8.384;2023-07-24T04:03:34;99354.53;;;17.87;100.00
17383;BME280;8809;51.892;8.384;2023-07-24T04:06:01;99347.50;;;17.86;100.00
17383;BME280;8809;51.892;8.384;2023-07-24T04:08:29;99341.34;;;17.84;100.00
17383;BME280;8809;51.892;8.384;2023-07-24T04:10:56;99337.81;;;17.84;100.00
17383;BME280;8809;51.892;8.384;2023-07-24T04:13:23;99333.44;;;17.84;100.00
17383;BME280;8809;51.892;8.384;2023-07-24T04:15:50;99322.00;;;17.85;100.00
17383;BME280;8809;51.892;8.384;2023-07-24T04:18:18;99333.41;;;17.87;100.00
17383;BME280;8809;51.892;8.384;2023-07-24T04:20:46;99332.50;;;17.88;100.00
17383;BME280;8809;51.892;8.384;2023-07-24T04:23:13;99338.63;;;17.90;100.00
17383;BME280;8809;51.892;8.384;2023-07-24T04:25:40;99340.41;;;17.91;100.00
17383;BME280;8809;51.892;8.384;2023-07-24T04:28:07;99334.22;;;17.94;100.00
17383;BME280;8809;51.892;8.384;2023-07-24T04:30:34;99330.72;;;17.90;100.00
17383;BME280;8809;51.892;8.384;2023-07-24T04:33:01;99325.50;;;17.84;100.00
17383;BME280;8809;51.892;8.384;2023-07-24T04:35:30;99318.47;;;17.85;100.00
17383;BME280;8809;51.892;8.384;2023-07-24T04:37:57;99332.53;;;17.87;100.00
17383;BME280;8809;51.892;8.384;2023-07-24T04:40:24;99341.28;;;17.89;100.00
17383;BME280;8809;51.892;8.384;2023-07-24T04:42:51;99339.50;;;17.91;100.00
17383;BME280;8809;51.892;8.384;2023-07-24T04:45:18;99338.63;;;17.90;100.00
17383;BME280;8809;51.892;8.384;2023-07-24T04:47:46;99340.41;;;17.90;100.00
17383;BME280;8809;51.892;8.384;2023-07-24T04:50:13;99343.91;;;17.90;100.00
17383;BME280;8809;51.892;8.384;2023-07-24T04:52:42;99334.25;;;17.91;100.00
17383;BME280;8809;51.892;8.384;2023-07-24T04:55:09;99325.44;;;17.93;100.00
17383;BME280;8809;51.892;8.384;2023-07-24T04:57:36;99329.84;;;17.91;100.00
17383;BME280;8809;51.892;8.384;2023-07-24T05:00:04;99321.03;;;17.95;100.00
17383;BME280;8809;51.892;8.384;2023-07-24T05:02:32;99310.47;;;17.92;100.00
17383;BME280;8809;51.892;8.384;2023-07-24T05:04:59;99316.56;;;17.99;100.00
17383;BME280;8809;51.892;8.384;2023-07-24T05:07:26;99308.69;;;17.97;100.00
17383;BME280;8809;51.892;8.384;2023-07-24T05:09:55;99305.13;;;17.98;100.00
17383;BME280;8809;51.892;8.384;2023-07-24T05:12:22;99304.22;;;18.02;100.00
17383;BME280;8809;51.892;8.384;2023-07-24T05:14:49;99303.34;;;18.06;100.00
17383;BME280;8809;51.892;8.384;2023-07-24T05:17:16;99310.31;;;18.10;100.00
17383;BME280;8809;51.892;8.384;2023-07-24T05:19:43;99312.06;;;18.11;100.00
17383;BME280;8809;51.892;8.384;2023-07-24T05:22:10;99309.41;;;18.14;100.00
17383;BME280;8809;51.892;8.384;2023-07-24T05:24:37;99308.47;;;18.18;100.00
17383;BME280;8809;51.892;8.384;2023-07-24T05:27:06;99305.81;;;18.18;100.00
17383;BME280;8809;51.892;8.384;2023-07-24T05:29:33;99304.06;;;18.19;100.00
17383;BME280;8809;51.892;8.384;2023-07-24T05:32:00;99307.56;;;18.23;100.00
17383;BME280;8809;51.892;8.384;2023-07-24T05:34:28;99310.19;;;18.26;100.00
17383;BME280;8809;51.892;8.384;2023-07-24T05:36:55;99318.91;;;18.34;100.00
17383;BME280;8809;51.892;8.384;2023-07-24T05:39:22;99313.53;;;18.40;100.00
17383;BME280;8809;51.892;8.384;2023-07-24T05:41:49;99317.03;;;18.45;100.00
17383;BME280;8809;51.892;8.384;2023-07-24T05:44:19;99324.00;;;18.49;100.00
17383;BME280;8809;51.892;8.384;2023-07-24T05:46:47;99326.56;;;18.55;100.00
17383;BME280;8809;51.892;8.384;2023-07-24T05:49:14;99323.91;;;18.55;100.00
17383;BME280;8809;51.892;8.384;2023-07-24T05:51:41;99330.09;;;18.57;100.00
17383;BME280;8809;51.892;8.384;2023-07-24T05:54:09;99319.53;;;18.59;100.00
17383;BME280;8809;51.892;8.384;2023-07-24T05:56:36;99326.56;;;18.58;100.00
17383;BME280;8809;51.892;8.384;2023-07-24T05:59:03;99338.00;;;18.60;100.00
17383;BME280;8809;51.892;8.384;2023-07-24T06:01:31;99337.19;;;18.53;100.00
17383;BME280;8809;51.892;8.384;2023-07-24T06:03:58;99333.69;;;18.48;100.00
17383;BME280;8809;51.892;8.384;2023-07-24T06:06:28;99336.41;;;18.44;100.00
17383;BME280;8809;51.892;8.384;2023-07-24T06:08:55;99336.41;;;18.41;100.00
17383;BME280;8809;51.892;8.384;2023-07-24T06:11:23;99339.94;;;18.40;100.00
17383;BME280;8809;51.892;8.384;2023-07-24T06:13:52;99340.03;;;18.34;100.00
17383;BME280;8809;51.892;8.384;2023-07-24T06:16:19;99345.34;;;18.28;100.00
17383;BME280;8809;51.892;8.384;2023-07-24T06:18:48;99341.88;;;18.26;100.00
17383;BME280;8809;51.892;8.384;2023-07-24T06:21:15;99339.22;;;18.26;100.00
17383;BME280;8809;51.892;8.384;2023-07-24T06:23:42;99351.50;;;18.27;100.00
17383;BME280;8809;51.892;8.384;2023-07-24T06:26:09;99338.22;;;18.36;100.00
17383;BME280;8809;51.892;8.384;2023-07-24T06:28:36;99341.81;;;18.30;100.00
17383;BME280;8809;51.892;8.384;2023-07-24T06:31:03;99336.53;;;18.27;100.00
17383;BME280;8809;51.892;8.384;2023-07-24T06:33:30;99346.19;;;18.31;100.00
17383;BME280;8809;51.892;8.384;2023-07-24T06:35:59;99354.13;;;18.31;100.00
17383;BME280;8809;51.892;8.384;2023-07-24T06:38:26;99353.22;;;18.34;100.00
17383;BME280;8809;51.892;8.384;2023-07-24T06:40:53;99351.47;;;18.34;100.00
17383;BME280;8809;51.892;8.384;2023-07-24T06:43:22;99365.50;;;18.36;100.00
17383;BME280;8809;51.892;8.384;2023-07-24T06:45:49;99365.50;;;18.36;100.00
17383;BME280;8809;51.892;8.384;2023-07-24T06:48:19;99362.84;;;18.39;100.00
17383;BME280;8809;51.892;8.384;2023-07-24T06:50:47;99361.09;;;18.37;100.00
17383;BME280;8809;51.892;8.384;2023-07-24T06:53:15;99362.81;;;18.41;100.00
17383;BME280;8809;51.892;8.384;2023-07-24T06:55:43;99373.38;;;18.42;100.00
17383;BME280;8809;51.892;8.384;2023-07-24T06:58:10;99368.00;;;18.53;100.00
17383;BME280;8809;51.892;8.384;2023-07-24T07:00:37;99368.81;;;18.60;100.00
17383;BME280;8809;51.892;8.384;2023-07-24T07:03:04;99369.69;;;18.62;100.00
17383;BME280;8809;51.892;8.384;2023-07-24T07:05:31;99375.78;;;18.67;100.00
17383;BME280;8809;51.892;8.384;2023-07-24T07:07:58;99373.13;;;18.68;100.00
17383;BME280;8809;51.892;8.384;2023-07-24T07:10:27;99364.31;;;18.69;100.00
17383;BME280;8809;51.892;8.384;2023-07-24T07:12:54;99360.00;;;18.64;100.00
17383;BME280;8809;51.892;8.384;2023-07-24T07:15:22;99366.09;;;18.67;100.00
17383;BME280;8809;51.892;8.384;2023-07-24T07:17:49;99363.47;;;18.66;100.00
17383;BME280;8809;51.892;8.384;2023-07-24T07:20:16;99359.88;;;18.73;100.00
17383;BME280;8809;51.892;8.384;2023-07-24T07:22:43;99356.31;;;18.75;100.00
17383;BME280;8809;51.892;8.384;2023-07-24T07:25:11;99359.81;;;18.77;100.00
17383;BME280;8809;51.892;8.384;2023-07-24T07:27:39;99351.84;;;18.82;100.00
17383;BME280;8809;51.892;8.384;2023-07-24T07:30:07;99358.84;;;18.84;100.00
17383;BME280;8809;51.892;8.384;2023-07-24T07:32:35;99358.84;;;18.84;100.00
17383;BME280;8809;51.892;8.384;2023-07-24T07:35:02;99362.34;;;18.86;100.00
17383;BME280;8809;51.892;8.384;2023-07-24T07:37:30;99354.47;;;18.83;100.00
17383;BME280;8809;51.892;8.384;2023-07-24T07:39:57;99354.44;;;18.85;100.00
17383;BME280;8809;51.892;8.384;2023-07-24T07:42:24;99361.47;;;18.86;100.00
17383;BME280;8809;51.892;8.384;2023-07-24T07:44:53;99360.66;;;18.82;100.00
17383;BME280;8809;51.892;8.384;2023-07-24T07:47:20;99359.72;;;18.85;100.00
17383;BME280;8809;51.892;8.384;2023-07-24T07:49:47;99361.44;;;18.90;100.00
17383;BME280;8809;51.892;8.384;2023-07-24T07:52:16;99363.97;;;18.98;100.00
17383;BME280;8809;51.892;8.384;2023-07-24T07:54:46;99355.16;;;19.01;100.00
17383;BME280;8809;51.892;8.384;2023-07-24T07:57:13;99351.53;;;19.06;100.00
17383;BME280;8809;51.892;8.384;2023-07-24T07:59:40;99349.66;;;19.16;100.00
17383;BME280;8809;51.892;8.384;2023-07-24T08:02:09;99346.09;;;19.20;100.00
17383;BME280;8809;51.892;8.384;2023-07-24T08:04:36;99347.72;;;19.30;100.00
17383;BME280;8809;51.892;8.384;2023-07-24T08:07:04;99344.09;;;19.36;100.00
17383;BME280;8809;51.892;8.384;2023-07-24T08:09:31;99347.50;;;19.44;100.00
17383;BME280;8809;51.892;8.384;2023-07-24T08:11:59;99338.69;;;19.48;100.00
17383;BME280;8809;51.892;8.384;2023-07-24T08:14:30;99338.66;;;19.46;100.00
17383;BME280;8809;51.892;8.384;2023-07-24T08:17:06;99329.88;;;19.44;100.00
17383;BME280;8809;51.892;8.384;2023-07-24T08:19:34;99337.75;;;19.50;100.00
17383;BME280;8809;51.892;8.384;2023-07-24T08:22:01;99335.91;;;19.55;100.00
17383;BME280;8809;51.892;8.384;2023-07-24T08:24:33;99338.56;;;19.55;100.00
17383;BME280;8809;51.892;8.384;2023-07-24T08:27:04;99333.22;;;19.58;100.00
17383;BME280;8809;51.892;8.384;2023-07-24T08:29:32;99338.53;;;19.58;100.00
17383;BME280;8809;51.892;8.384;2023-07-24T08:32:01;99340.19;;;19.62;100.00
17383;BME280;8809;51.892;8.384;2023-07-24T08:34:28;99326.94;;;19.64;100.00
17383;BME280;8809;51.892;8.384;2023-07-24T08:36:57;99333.09;;;19.66;100.00
17383;BME280;8809;51.892;8.384;2023-07-24T08:39:24;99329.53;;;19.70;100.00
17383;BME280;8809;51.892;8.384;2023-07-24T08:41:54;99335.63;;;19.72;100.00
17383;BME280;8809;51.892;8.384;2023-07-24T08:44:21;99339.16;;;19.73;100.00
17383;BME280;8809;51.892;8.384;2023-07-24T08:46:51;99336.47;;;19.76;100.00
17383;BME280;8809;51.892;8.384;2023-07-24T08:49:19;99330.28;;;19.78;100.00
17383;BME280;8809;51.892;8.384;2023-07-24T08:51:48;99329.41;;;19.78;100.00
17383;BME280;8809;51.892;8.384;2023-07-24T08:54:19;99333.84;;;19.74;100.00
17383;BME280;8809;51.892;8.384;2023-07-24T08:56:47;99329.31;;;19.81;100.00
17383;BME280;8809;51.892;8.384;2023-07-24T08:59:18;99327.53;;;19.83;100.00
17383;BME280;8809;51.892;8.384;2023-07-24T09:01:46;99331.81;;;19.90;100.00
17383;BME280;8809;51.892;8.384;2023-07-24T09:04:13;99329.13;;;19.93;100.00
17383;BME280;8809;51.892;8.384;2023-07-24T09:06:40;99333.47;;;19.98;100.00
17383;BME280;8809;51.892;8.384;2023-07-24T09:09:13;99336.94;;;20.00;100.00
17383;BME280;8809;51.892;8.384;2023-07-24T09:11:48;99337.78;;;20.04;100.00
17383;BME280;8809;51.892;8.384;2023-07-24T09:14:23;99333.25;;;20.09;100.00
17383;BME280;8809;51.892;8.384;2023-07-24T09:17:02;99319.06;;;20.15;100.00
17383;BME280;8809;51.892;8.384;2023-07-24T09:19:29;99324.25;;;20.19;100.00
17383;BME280;8809;51.892;8.384;2023-07-24T09:22:07;99325.03;;;20.27;100.00
17383;BME280;8809;51.892;8.384;2023-07-24T09:24:35;99324.88;;;20.36;100.00
17383;BME280;8809;51.892;8.384;2023-07-24T09:27:05;99331.75;;;20.47;100.00
17383;BME280;8809;51.892;8.384;2023-07-24T09:29:33;99336.78;;;20.60;100.00
17383;BME280;8809;51.892;8.384;2023-07-24T09:32:00;99340.19;;;20.67;100.00
17383;BME280;8809;51.892;8.384;2023-07-24T09:34:28;99336.50;;;20.76;100.00
17383;BME280;8809;51.892;8.384;2023-07-24T09:36:55;99333.78;;;20.77;100.00
17383;BME280;8809;51.892;8.384;2023-07-24T09:39:24;99332.91;;;20.78;100.00
17383;BME280;8809;51.892;8.384;2023-07-24T09:41:53;99328.06;;;20.98;100.00
17383;BME280;8809;51.892;8.384;2023-07-24T09:44:25;99343.88;;;21.04;100.00
17383;BME280;8809;51.892;8.384;2023-07-24T09:47:01;99326.09;;;21.08;100.00
17383;BME280;8809;51.892;8.384;2023-07-24T09:49:28;99324.25;;;21.11;100.00
17383;BME280;8809;51.892;8.384;2023-07-24T09:51:59;99329.53;;;21.13;100.00
17383;BME280;8809;51.892;8.384;2023-07-24T09:54:32;99319.81;;;21.14;100.00
17383;BME280;8809;51.892;8.384;2023-07-24T09:57:08;99320.75;;;21.09;100.00
17383;BME280;8809;51.892;8.384;2023-07-24T09:59:39;99314.69;;;21.04;100.00
17383;BME280;8809;51.892;8.384;2023-07-24T10:02:11;99327.13;;;21.01;100.00
17383;BME280;8809;51.892;8.384;2023-07-24T10:04:40;99325.59;;;20.89;100.00
17383;BME280;8809;51.892;8.384;2023-07-24T10:07:07;99318.75;;;20.79;100.00
17383;BME280;8809;51.892;8.384;2023-07-24T10:09:36;99318.88;;;20.73;100.00
17383;BME280;8809;51.892;8.384;2023-07-24T10:12:05;99318.94;;;20.68;100.00
17383;BME280;8809;51.892;8.384;2023-07-24T10:14:33;99313.75;;;20.64;100.00
17383;BME280;8809;51.892;8.384;2023-07-24T10:17:03;99312.94;;;20.60;100.00
17383;BME280;8809;51.892;8.384;2023-07-24T10:19:39;99315.59;;;20.59;100.00
17383;BME280;8809;51.892;8.384;2023-07-24T10:22:09;99306.84;;;20.57;100.00
17383;BME280;8809;51.892;8.384;2023-07-24T10:24:38;99302.47;;;20.54;100.00
17383;BME280;8809;51.892;8.384;2023-07-24T10:27:07;99309.50;;;20.55;100.00
17383;BME280;8809;51.892;8.384;2023-07-24T10:29:35;99304.31;;;20.49;100.00
17383;BME280;8809;51.892;8.384;2023-07-24T10:32:15;99306.84;;;20.57;100.00
17383;BME280;8809;51.892;8.384;2023-07-24T10:34:45;99307.00;;;20.48;100.00
17383;BME280;8809;51.892;8.384;2023-07-24T10:37:12;99308.91;;;20.40;100.00
17383;BME280;8809;51.892;8.384;2023-07-24T10:39:40;99315.31;;;20.26;100.00
17383;BME280;8809;51.892;8.384;2023-07-24T10:42:08;99310.25;;;20.14;100.00
17383;BME280;8809;51.892;8.384;2023-07-24T10:44:36;99306.06;;;20.01;100.00
17383;BME280;8809;51.892;8.384;2023-07-24T10:47:05;99306.91;;;20.03;100.00
17383;BME280;8809;51.892;8.384;2023-07-24T10:49:33;99307.59;;;20.14;100.00
17383;BME280;8809;51.892;8.384;2023-07-24T10:52:00;99299.19;;;20.40;100.00
17383;BME280;8809;51.892;8.384;2023-07-24T10:54:29;99299.84;;;20.53;100.00
17383;BME280;8809;51.892;8.384;2023-07-24T10:57:00;99294.16;;;20.72;100.00
17383;BME280;8809;51.892;8.384;2023-07-24T10:59:38;99302.09;;;20.72;100.00
17383;BME280;8809;51.892;8.384;2023-07-24T11:02:07;99295.06;;;20.70;100.00
17383;BME280;8809;51.892;8.384;2023-07-24T11:04:36;99295.03;;;20.71;100.00
17383;BME280;8809;51.892;8.384;2023-07-24T11:07:03;99296.63;;;20.80;100.00
17383;BME280;8809;51.892;8.384;2023-07-24T11:09:35;99306.38;;;20.78;100.00
17383;BME280;8809;51.892;8.384;2023-07-24T11:12:10;99307.22;;;20.82;100.00
17383;BME280;8809;51.892;8.384;2023-07-24T11:14:49;99300.16;;;20.81;100.00
17383;BME280;8809;51.892;8.384;2023-07-24T11:17:17;99310.75;;;20.81;100.00
17383;BME280;8809;51.892;8.384;2023-07-24T11:19:45;99305.38;;;20.85;100.00
17383;BME280;8809;51.892;8.384;2023-07-24T11:22:12;99308.63;;;20.98;100.00
17383;BME280;8809;51.892;8.384;2023-07-24T11:24:45;99316.13;;;21.21;100.00
17383;BME280;8809;51.892;8.384;2023-07-24T11:27:13;99321.41;;;21.61;100.00
17383;BME280;8809;51.892;8.384;2023-07-24T11:29:42;99315.75;;;21.74;100.00
17383;BME280;8809;51.892;8.384;2023-07-24T11:32:18;99299.63;;;21.82;100.00
17383;BME280;8809;51.892;8.384;2023-07-24T11:34:46;99305.78;;;21.84;100.00
17383;BME280;8809;51.892;8.384;2023-07-24T11:37:15;99303.78;;;21.94;100.00
17383;BME280;8809;51.892;8.384;2023-07-24T11:39:42;99300.00;;;22.04;100.00
17383;BME280;8809;51.892;8.384;2023-07-24T11:42:09;99302.44;;;22.11;100.00
17383;BME280;8809;51.892;8.384;2023-07-24T11:44:36;99306.25;;;22.01;100.00
17383;BME280;8809;51.892;8.384;2023-07-24T11:47:05;99298.38;;;21.97;100.00
17383;BME280;8809;51.892;8.384;2023-07-24T11:49:35;99293.19;;;21.92;100.00
17383;BME280;8809;51.892;8.384;2023-07-24T11:52:04;99283.41;;;21.94;100.00
17383;BME280;8809;51.892;8.384;2023-07-24T11:54:34;99275.47;;;21.93;100.00
17383;BME280;8809;51.892;8.384;2023-07-24T11:57:01;99278.09;;;21.94;100.00
17383;BME280;8809;51.892;8.384;2023-07-24T11:59:39;99275.47;;;21.93;100.00
17383;BME280;8809;51.892;8.384;2023-07-24T12:02:09;99265.75;;;21.92;100.00
17383;BME280;8809;51.892;8.384;2023-07-24T12:04:38;99262.28;;;21.90;100.00
17383;BME280;8809;51.892;8.384;2023-07-24T12:07:07;99260.50;;;21.90;100.00
17383;BME280;8809;51.892;8.384;2023-07-24T12:09:37;99252.34;;;21.99;100.00
17383;BME280;8809;51.892;8.384;2023-07-24T12:12:08;99243.13;;;22.11;100.00
17383;BME280;8809;51.892;8.384;2023-07-24T12:14:41;99242.59;;;22.31;100.00
17383;BME280;8809;51.892;8.384;2023-07-24T12:17:08;99239.00;;;22.33;100.00
17383;BME280;8809;51.892;8.384;2023-07-24T12:19:39;99229.31;;;22.31;100.00
17383;BME280;8809;51.892;8.384;2023-07-24T12:22:07;99233.03;;;22.25;100.00
17383;BME280;8809;51.892;8.384;2023-07-24T12:24:36;99241.25;;;22.16;100.00
17383;BME280;8809;51.892;8.384;2023-07-24T12:27:03;99248.56;;;22.08;100.00
17383;BME280;8809;51.892;8.384;2023-07-24T12:29:30;99247.97;;;21.95;100.00
17383;BME280;8809;51.892;8.384;2023-07-24T12:31:58;99246.47;;;21.85;100.00
17383;BME280;8809;51.892;8.384;2023-07-24T12:34:25;99252.94;;;21.73;100.00
17383;BME280;8809;51.892;8.384;2023-07-24T12:36:54;99274.41;;;21.64;100.00
17383;BME280;8809;51.892;8.384;2023-07-24T12:39:21;99276.38;;;21.56;100.00
17383;BME280;8809;51.892;8.384;2023-07-24T12:41:49;99292.66;;;21.42;100.00
17383;BME280;8809;51.892;8.384;2023-07-24T12:44:16;99297.50;;;21.24;100.00
17383;BME280;8809;51.892;8.384;2023-07-24T12:46:44;99296.22;;;21.00;100.00
17383;BME280;8809;51.892;8.384;2023-07-24T12:49:11;99290.50;;;20.77;100.00
17383;BME280;8809;51.892;8.384;2023-07-24T12:51:39;99285.56;;;20.60;100.00
17383;BME280;8809;51.892;8.384;2023-07-24T12:54:07;99263.78;;;20.46;100.00
17383;BME280;8809;51.892;8.384;2023-07-24T12:56:34;99240.19;;;20.30;100.00
17383;BME280;8809;51.892;8.384;2023-07-24T12:59:01;99242.16;;;20.19;100.00
17383;BME280;8809;51.892;8.384;2023-07-24T13:01:29;99252.13;;;20.07;100.00
17383;BME280;8809;51.892;8.384;2023-07-24T13:03:56;99248.81;;;19.94;100.00
17383;BME280;8809;51.892;8.384;2023-07-24T13:06:23;99248.97;;;19.86;100.00